Ana Sayfa
METAR-TAF:

METAR-TAF

Havaalanları :

King Cove, Alaska, Amerika Birleşik Devletleri

Enlem: 55-06-59N, Boylam: 162-15-58W, yükseklik: 47 m

Güncel hava durumu gözlemi

Rapor saat 05:14 UTC de 39 dakika önce yapıldı.
Rüzgar batıdan 34 kt ve 44 kt'a kadar ani rüzgarlar
Sıcaklık 2°C
Nem 93%
Basınç 1014 hPa
Görüş mesafesi: 12.9 km
600 ft yükseklikte az bulutlu

METAR: PAVC 270514Z AUTO 27034G44KT 8SM FEW006 02/01 A2994 RMK AO2 PK WND 27044/0512 FZRANO

Saat: 21:53 (05:53 UTC)


TAF: eksik

4.000'den fazla havaalanı için hava durumu gözlemleri ve tahminleri (METAR ve TAF raporları).

Kullanılabilir istasyonlar harita üzerinde sarı ve kırmızı noktalarla gösterilir.

İstasyonun adını görmek için fareyi noktanın üzerinde gezdirin.

Sonrasında hava gözlem ve tahminlerini görmek için tıklayın.

Haritayı değiştirmek için: yaklaştırmak için siyah artı işaretli yeşil düğmeye ve uzaklaştırmak için de eksi işaretli düğmeye hızla tıklayın; bitişik haritalar için yeşil okları kullanın.


METAR-TAF: